Time;durP1;ratioP1;P1;durP2;ratioP2;P2;SDS_P1;SDS_P2;PMS_P1;PMS_P2;Temp;Humidity;BMP_temperature;BMP_pressure;BME280_temperature;BME280_humidity;BME280_pressure;Samples;Min_cycle;Max_cycle;Signal;HPM_P1;HPM_P2
2023/06/30 00:00:12;;;;;;;7.20;3.97;;;18.30;99.90;;;;;;4974924;28;20469;-75
2023/06/30 00:02:42;;;;;;;7.53;4.40;;;18.20;99.90;;;;;;4978230;28;20796;-75
2023/06/30 00:05:13;;;;;;;6.33;3.97;;;18.20;99.90;;;;;;4976878;28;20441;-75
2023/06/30 00:07:42;;;;;;;7.63;4.43;;;18.20;99.90;;;;;;4978203;28;20454;-75
2023/06/30 00:10:11;;;;;;;5.73;4.20;;;18.20;99.90;;;;;;4976726;28;20488;-75
2023/06/30 00:12:39;;;;;;;6.17;4.47;;;18.20;99.90;;;;;;4976467;28;20540;-75
2023/06/30 00:15:08;;;;;;;6.70;4.33;;;18.20;99.90;;;;;;4976714;28;20456;-75
2023/06/30 00:17:36;;;;;;;7.50;4.90;;;18.20;99.90;;;;;;4977698;28;20408;-75
2023/06/30 00:20:07;;;;;;;7.40;5.23;;;18.20;99.90;;;;;;4977792;28;20440;-75
2023/06/30 00:22:37;;;;;;;9.30;5.30;;;18.20;99.90;;;;;;4978067;28;20429;-75
2023/06/30 00:25:06;;;;;;;8.47;5.60;;;18.20;99.90;;;;;;4977881;28;20930;-75
2023/06/30 00:27:34;;;;;;;8.97;5.70;;;18.20;99.90;;;;;;4976506;28;20457;-75
2023/06/30 00:30:05;;;;;;;8.07;5.33;;;18.20;99.90;;;;;;4978014;28;20418;-75
2023/06/30 00:32:34;;;;;;;10.57;4.67;;;18.10;99.90;;;;;;4977784;28;20994;-75
2023/06/30 00:35:03;;;;;;;9.13;6.27;;;18.10;99.90;;;;;;4977533;28;21004;-75
2023/06/30 00:37:32;;;;;;;9.77;6.07;;;18.10;99.90;;;;;;4977413;28;20511;-75
2023/06/30 00:40:02;;;;;;;8.17;5.43;;;18.10;99.90;;;;;;4976089;28;20485;-75
2023/06/30 00:42:31;;;;;;;8.30;5.57;;;18.10;99.90;;;;;;4976223;28;21006;-75
2023/06/30 00:44:59;;;;;;;11.63;5.77;;;18.10;99.90;;;;;;4976089;28;20445;-75
2023/06/30 00:47:28;;;;;;;9.07;6.00;;;18.10;99.90;;;;;;4977569;28;20412;-75
2023/06/30 00:49:56;;;;;;;10.90;6.50;;;18.10;99.90;;;;;;4976187;28;20440;-75
2023/06/30 00:52:25;;;;;;;7.10;5.80;;;18.10;99.90;;;;;;4977532;28;20480;-75
2023/06/30 00:54:53;;;;;;;9.57;6.50;;;18.00;99.90;;;;;;4975901;28;20535;-76
2023/06/30 00:57:22;;;;;;;8.10;5.93;;;18.00;99.90;;;;;;4977025;28;20429;-75
2023/06/30 00:59:51;;;;;;;9.50;5.70;;;18.00;99.90;;;;;;4975661;28;20561;-75
2023/06/30 01:02:25;;;;;;;7.57;6.10;;;18.00;99.90;;;;;;4975909;28;20822;-75
2023/06/30 01:04:59;;;;;;;8.33;6.40;;;18.00;99.90;;;;;;4977259;28;20422;-75
2023/06/30 01:07:32;;;;;;;7.20;6.40;;;18.00;99.90;;;;;;4975601;28;20446;-75
2023/06/30 01:10:07;;;;;;;9.37;6.23;;;17.90;99.90;;;;;;4977052;28;20561;-75
2023/06/30 01:12:38;;;;;;;10.80;6.53;;;17.90;99.90;;;;;;4975393;28;20488;-75
2023/06/30 01:15:10;;;;;;;8.60;7.00;;;17.90;99.90;;;;;;4975482;28;20474;-75
2023/06/30 01:17:46;;;;;;;9.30;6.67;;;17.90;99.90;;;;;;4975638;28;20445;-75
2023/06/30 01:20:17;;;;;;;8.80;6.80;;;17.90;99.90;;;;;;4975702;28;20408;-75
2023/06/30 01:22:51;;;;;;;7.70;6.70;;;17.90;99.90;;;;;;4977101;28;20529;-75
2023/06/30 01:25:21;;;;;;;10.30;6.03;;;17.90;99.90;;;;;;4975815;28;20855;-76
2023/06/30 01:27:52;;;;;;;7.53;5.60;;;17.80;99.90;;;;;;4976775;28;20437;-76
2023/06/30 01:30:21;;;;;;;8.87;6.70;;;17.80;99.90;;;;;;4977166;28;20422;-75
2023/06/30 01:32:54;;;;;;;9.83;7.33;;;17.80;99.90;;;;;;4975250;28;20878;-76
2023/06/30 01:35:23;;;;;;;8.57;6.50;;;17.80;99.90;;;;;;4976646;28;20461;-76
2023/06/30 01:37:52;;;;;;;9.83;6.43;;;17.80;99.90;;;;;;4976381;28;20416;-75
2023/06/30 01:40:21;;;;;;;9.37;6.53;;;17.80;99.90;;;;;;4975231;28;20971;-76
2023/06/30 01:42:56;;;;;;;12.53;7.40;;;17.80;99.90;;;;;;4975314;28;20417;-75
2023/06/30 01:45:25;;;;;;;8.40;6.53;;;17.80;99.90;;;;;;4974906;28;20957;-76
2023/06/30 01:47:57;;;;;;;11.90;7.30;;;17.80;99.90;;;;;;4974876;28;20450;-76
2023/06/30 01:50:29;;;;;;;9.10;6.70;;;17.80;99.90;;;;;;4974952;28;20533;-75
2023/06/30 01:52:57;;;;;;;9.67;6.93;;;17.80;99.90;;;;;;4976378;28;20481;-76
2023/06/30 01:55:26;;;;;;;9.73;7.00;;;17.80;99.90;;;;;;4974777;28;20480;-76
2023/06/30 01:57:56;;;;;;;10.03;7.80;;;17.80;99.90;;;;;;4976145;28;20462;-75
2023/06/30 02:00:24;;;;;;;11.13;7.90;;;17.80;99.90;;;;;;4974522;28;20430;-75
2023/06/30 02:02:54;;;;;;;11.53;7.87;;;17.70;99.90;;;;;;4974803;28;20469;-75
2023/06/30 02:05:22;;;;;;;11.20;8.53;;;17.80;99.90;;;;;;4974513;28;20460;-75
2023/06/30 02:07:50;;;;;;;10.40;7.53;;;17.80;99.90;;;;;;4974396;28;20445;-75
2023/06/30 02:10:18;;;;;;;15.23;8.83;;;17.80;99.90;;;;;;4974682;28;20484;-76
2023/06/30 02:12:49;;;;;;;11.07;8.03;;;17.80;99.90;;;;;;4974343;28;20474;-75
2023/06/30 02:15:19;;;;;;;11.40;8.30;;;17.80;99.90;;;;;;4974251;28;20477;-75
2023/06/30 02:17:48;;;;;;;11.17;8.50;;;17.70;99.90;;;;;;4974510;28;20452;-75
2023/06/30 02:20:17;;;;;;;12.57;8.90;;;17.80;99.90;;;;;;4974557;28;20450;-75
2023/06/30 02:22:48;;;;;;;14.07;9.50;;;17.70;99.90;;;;;;4974124;28;20488;-76
2023/06/30 02:25:16;;;;;;;10.27;9.07;;;17.70;99.90;;;;;;4975628;28;20907;-75
2023/06/30 02:27:45;;;;;;;12.23;8.73;;;17.70;99.90;;;;;;4973989;28;20446;-75
2023/06/30 02:30:20;;;;;;;10.80;9.10;;;17.70;99.90;;;;;;4974173;28;20457;-75
2023/06/30 02:32:48;;;;;;;13.10;9.03;;;17.70;99.90;;;;;;4974035;28;20536;-75
2023/06/30 02:35:16;;;;;;;13.70;9.77;;;17.60;99.90;;;;;;4973989;28;20473;-75
2023/06/30 02:37:45;;;;;;;12.87;9.00;;;17.60;99.90;;;;;;4974605;28;20446;-75
2023/06/30 02:40:14;;;;;;;11.40;10.23;;;17.60;99.90;;;;;;4974498;28;20496;-75
2023/06/30 02:42:42;;;;;;;13.70;10.30;;;17.60;99.90;;;;;;4975475;28;20955;-75
2023/06/30 02:45:11;;;;;;;13.80;9.27;;;17.60;99.90;;;;;;4973885;28;20453;-75
2023/06/30 02:47:41;;;;;;;14.93;11.20;;;17.50;99.90;;;;;;4973774;28;20417;-75
2023/06/30 02:50:10;;;;;;;10.07;9.03;;;17.50;99.90;;;;;;4973818;28;20428;-75
2023/06/30 02:52:40;;;;;;;10.30;9.27;;;17.50;99.90;;;;;;4973691;28;20453;-76
2023/06/30 02:55:09;;;;;;;10.27;9.20;;;17.50;99.90;;;;;;4973820;28;20496;-75
2023/06/30 02:57:37;;;;;;;13.70;11.23;;;17.50;99.90;;;;;;4975397;28;20504;-75
2023/06/30 03:00:09;;;;;;;12.03;10.23;;;17.50;99.90;;;;;;4973571;28;20420;-75
2023/06/30 03:02:37;;;;;;;12.10;10.77;;;17.40;99.90;;;;;;4973524;28;20929;-75
2023/06/30 03:05:09;;;;;;;14.23;11.10;;;17.40;99.90;;;;;;4973514;28;20890;-75
2023/06/30 03:07:39;;;;;;;14.53;11.00;;;17.40;99.90;;;;;;4973539;28;20413;-75
2023/06/30 03:10:09;;;;;;;11.63;10.43;;;17.40;99.90;;;;;;4973367;28;20428;-75
2023/06/30 03:12:37;;;;;;;14.70;10.90;;;17.40;99.90;;;;;;4973627;28;20564;-75
2023/06/30 03:15:07;;;;;;;15.83;10.80;;;17.40;99.90;;;;;;4973202;28;20957;-75
2023/06/30 03:17:36;;;;;;;16.87;11.70;;;17.30;99.90;;;;;;4973511;28;20445;-75
2023/06/30 03:20:10;;;;;;;14.03;10.43;;;17.30;99.90;;;;;;4973505;28;20446;-75
2023/06/30 03:22:41;;;;;;;14.63;11.47;;;17.30;99.90;;;;;;4973377;28;20475;-75
2023/06/30 03:25:09;;;;;;;12.60;11.30;;;17.30;99.90;;;;;;4973300;28;20471;-75
2023/06/30 03:27:38;;;;;;;15.37;10.73;;;17.30;99.90;;;;;;4974726;28;20466;-75
2023/06/30 03:30:07;;;;;;;12.90;10.90;;;17.30;99.90;;;;;;4974911;28;20443;-75
2023/06/30 03:32:40;;;;;;;15.63;11.80;;;17.30;99.90;;;;;;4974519;28;20508;-75
2023/06/30 03:35:09;;;;;;;12.70;11.50;;;17.30;99.90;;;;;;4974342;28;20444;-75
2023/06/30 03:37:37;;;;;;;15.70;12.23;;;17.20;99.90;;;;;;4978086;28;20548;-75
2023/06/30 03:40:08;;;;;;;14.90;10.70;;;17.20;99.90;;;;;;4977536;28;20460;-75
2023/06/30 03:42:37;;;;;;;11.80;10.60;;;17.20;99.90;;;;;;4977547;28;20453;-76
2023/06/30 03:45:06;;;;;;;14.60;11.33;;;17.20;99.90;;;;;;4977136;28;20506;-75
2023/06/30 03:47:35;;;;;;;14.63;10.50;;;17.20;99.90;;;;;;4977283;28;20933;-75
2023/06/30 03:50:03;;;;;;;12.87;11.00;;;17.20;99.90;;;;;;4977074;28;20436;-75
2023/06/30 03:52:32;;;;;;;12.53;10.97;;;17.20;99.90;;;;;;4977150;28;20416;-76
2023/06/30 03:55:00;;;;;;;16.03;10.77;;;17.20;99.90;;;;;;4977058;28;20536;-75
2023/06/30 03:57:29;;;;;;;16.93;11.20;;;17.20;99.90;;;;;;4978214;28;20412;-75
2023/06/30 03:59:57;;;;;;;15.40;11.70;;;17.20;99.90;;;;;;4978169;28;20446;-76
2023/06/30 04:02:26;;;;;;;14.50;10.80;;;17.20;99.90;;;;;;4977990;28;20404;-75
2023/06/30 04:04:54;;;;;;;12.80;11.37;;;17.20;99.90;;;;;;4976862;28;20429;-76
2023/06/30 04:07:22;;;;;;;16.07;11.83;;;17.20;99.90;;;;;;4977985;28;20437;-75
2023/06/30 04:09:50;;;;;;;12.87;11.23;;;17.20;99.90;;;;;;4978118;28;20436;-76
2023/06/30 04:12:18;;;;;;;13.03;11.63;;;17.20;99.90;;;;;;4976842;28;20568;-75
2023/06/30 04:14:48;;;;;;;15.03;11.60;;;17.20;99.90;;;;;;4978684;28;20422;-76
2023/06/30 04:17:17;;;;;;;12.47;11.17;;;17.20;99.90;;;;;;4978000;28;20499;-75
2023/06/30 04:19:45;;;;;;;16.43;12.53;;;17.20;99.90;;;;;;4977902;28;20443;-76
2023/06/30 04:22:13;;;;;;;22.60;11.23;;;17.20;99.90;;;;;;4978272;28;20835;-75
2023/06/30 04:24:41;;;;;;;13.80;12.47;;;17.20;99.90;;;;;;4978013;28;20456;-75
2023/06/30 04:27:09;;;;;;;14.97;12.17;;;17.20;99.90;;;;;;4977911;28;20408;-75
2023/06/30 04:29:38;;;;;;;15.10;12.40;;;17.20;99.90;;;;;;4977625;28;20563;-75
2023/06/30 04:32:07;;;;;;;14.23;11.30;;;17.20;99.90;;;;;;4977806;28;20503;-75
2023/06/30 04:34:36;;;;;;;17.03;12.87;;;17.20;99.90;;;;;;4976335;28;20432;-75
2023/06/30 04:37:04;;;;;;;13.10;11.70;;;17.20;99.90;;;;;;4976152;28;20528;-75
2023/06/30 04:39:33;;;;;;;15.60;11.20;;;17.20;99.90;;;;;;4977481;28;20481;-75
2023/06/30 04:42:01;;;;;;;15.50;11.10;;;17.20;99.90;;;;;;4977767;28;20453;-75
2023/06/30 04:44:30;;;;;;;14.83;10.93;;;17.20;99.90;;;;;;4977770;28;20864;-75
2023/06/30 04:46:58;;;;;;;18.10;11.57;;;17.20;99.90;;;;;;4975477;28;20512;-75
2023/06/30 04:49:27;;;;;;;14.37;10.70;;;17.20;99.90;;;;;;4977365;28;20851;-75
2023/06/30 04:51:56;;;;;;;12.03;7.93;;;17.20;99.90;;;;;;4977305;28;20454;-75
2023/06/30 04:54:24;;;;;;;13.77;10.60;;;17.20;99.90;;;;;;4975882;28;20441;-75
2023/06/30 04:56:52;;;;;;;14.40;10.97;;;17.20;99.90;;;;;;4976807;28;20445;-75
2023/06/30 04:59:20;;;;;;;14.73;10.23;;;17.20;99.90;;;;;;4975929;28;20913;-75
2023/06/30 05:01:48;;;;;;;13.03;10.07;;;17.20;99.90;;;;;;4977098;28;20533;-75
2023/06/30 05:04:17;;;;;;;13.27;11.23;;;17.20;99.90;;;;;;4975838;28;20449;-75
2023/06/30 05:06:47;;;;;;;15.27;9.57;;;17.20;99.90;;;;;;4977463;28;20441;-75
2023/06/30 05:09:15;;;;;;;14.93;9.87;;;17.20;99.90;;;;;;4975801;28;20473;-75
2023/06/30 05:11:44;;;;;;;12.47;10.10;;;17.20;99.90;;;;;;4976822;28;20441;-75
2023/06/30 05:14:12;;;;;;;14.07;9.50;;;17.20;99.90;;;;;;4975612;28;20412;-75
2023/06/30 05:16:40;;;;;;;17.03;10.03;;;17.20;99.90;;;;;;4976985;28;20836;-75
2023/06/30 05:19:08;;;;;;;12.37;8.60;;;17.20;99.90;;;;;;4976946;28;20456;-75
2023/06/30 05:21:36;;;;;;;15.23;9.50;;;17.20;99.90;;;;;;4977024;28;20446;-75
2023/06/30 05:24:06;;;;;;;11.50;8.70;;;17.30;99.90;;;;;;4977047;28;20404;-75
2023/06/30 05:26:34;;;;;;;14.33;9.40;;;17.20;99.90;;;;;;4977193;28;20880;-74
2023/06/30 05:29:04;;;;;;;12.27;8.70;;;17.30;99.90;;;;;;4975648;28;21130;-75
2023/06/30 05:31:33;;;;;;;12.57;8.60;;;17.30;99.90;;;;;;4975630;28;20450;-75
2023/06/30 05:34:01;;;;;;;12.77;8.60;;;17.30;99.90;;;;;;4976940;28;20525;-75
2023/06/30 05:36:30;;;;;;;12.90;8.37;;;17.20;99.90;;;;;;4976855;28;20953;-75
2023/06/30 05:38:58;;;;;;;10.90;7.97;;;17.20;99.90;;;;;;4976693;28;20481;-75
2023/06/30 05:41:28;;;;;;;10.43;7.80;;;17.20;99.90;;;;;;4975017;28;20952;-75
2023/06/30 05:43:56;;;;;;;13.37;8.20;;;17.30;99.90;;;;;;4976552;28;20512;-75
2023/06/30 05:46:24;;;;;;;12.47;7.80;;;17.30;99.90;;;;;;4975092;28;20442;-74
2023/06/30 05:48:52;;;;;;;13.90;7.30;;;17.30;99.90;;;;;;4975104;28;20466;-75
2023/06/30 05:51:20;;;;;;;10.73;7.70;;;17.40;99.90;;;;;;4976872;28;20438;-75
2023/06/30 05:53:48;;;;;;;13.90;7.37;;;17.50;99.90;;;;;;4975918;28;20478;-76
2023/06/30 05:56:17;;;;;;;9.37;6.67;;;17.50;99.90;;;;;;4975641;28;20968;-76
2023/06/30 05:58:46;;;;;;;12.43;8.23;;;17.70;99.90;;;;;;4973974;28;21004;-75
2023/06/30 06:01:14;;;;;;;9.73;6.87;;;17.80;99.90;;;;;;4974818;28;20424;-75
2023/06/30 06:03:42;;;;;;;13.40;7.30;;;17.90;99.90;;;;;;4976387;28;20943;-76
2023/06/30 06:06:11;;;;;;;12.70;6.80;;;18.00;99.90;;;;;;4974918;28;20455;-75
2023/06/30 06:08:40;;;;;;;9.90;6.30;;;18.10;99.90;;;;;;4975147;28;20505;-76
2023/06/30 06:11:08;;;;;;;7.80;5.50;;;18.20;99.90;;;;;;4975028;28;20460;-76
2023/06/30 06:13:38;;;;;;;9.73;6.20;;;18.20;99.90;;;;;;4976182;28;20808;-76
2023/06/30 06:16:08;;;;;;;11.00;6.83;;;18.20;99.90;;;;;;4974567;28;20497;-75
2023/06/30 06:18:36;;;;;;;11.23;6.37;;;18.20;99.90;;;;;;4975851;28;20457;-75
2023/06/30 06:21:05;;;;;;;10.50;6.30;;;18.10;99.90;;;;;;4974601;28;20420;-75
2023/06/30 06:23:33;;;;;;;11.97;6.53;;;18.20;99.90;;;;;;4974182;28;20456;-75
2023/06/30 06:26:02;;;;;;;9.53;6.77;;;18.20;99.90;;;;;;4974254;28;20537;-75
2023/06/30 06:28:30;;;;;;;8.80;6.20;;;18.20;99.90;;;;;;4974402;28;20476;-75
2023/06/30 06:30:58;;;;;;;11.07;7.00;;;18.20;99.90;;;;;;4975924;28;20437;-75
2023/06/30 06:33:28;;;;;;;8.63;5.30;;;18.20;99.90;;;;;;4974583;28;20446;-75
2023/06/30 06:35:56;;;;;;;11.77;6.30;;;18.20;99.90;;;;;;4976048;28;20525;-75
2023/06/30 06:38:24;;;;;;;10.20;5.60;;;18.20;99.90;;;;;;4975431;28;20454;-75
2023/06/30 06:40:52;;;;;;;9.23;6.40;;;18.20;99.90;;;;;;4975314;28;20473;-75
2023/06/30 06:43:24;;;;;;;10.20;6.37;;;18.20;99.90;;;;;;4975286;28;20442;-75
2023/06/30 06:45:52;;;;;;;8.23;6.10;;;18.20;99.90;;;;;;4974022;28;20449;-75
2023/06/30 06:48:23;;;;;;;10.57;6.97;;;18.20;99.90;;;;;;4975179;28;21037;-75
2023/06/30 06:50:54;;;;;;;12.77;6.57;;;18.30;99.90;;;;;;4974162;28;20446;-75
2023/06/30 06:53:24;;;;;;;13.20;7.10;;;18.30;99.90;;;;;;4974234;28;20985;-75
2023/06/30 06:55:54;;;;;;;9.70;6.13;;;18.40;99.90;;;;;;4975713;28;20892;-75
2023/06/30 06:58:23;;;;;;;12.40;6.40;;;18.50;99.90;;;;;;4973966;28;20517;-75
2023/06/30 07:00:52;;;;;;;9.80;6.10;;;18.70;99.90;;;;;;4973959;28;20505;-74
2023/06/30 07:03:20;;;;;;;9.77;6.33;;;18.90;99.90;;;;;;4973743;28;20574;-75
2023/06/30 07:05:49;;;;;;;10.97;5.90;;;19.00;99.90;;;;;;4975456;28;20879;-74
2023/06/30 07:08:19;;;;;;;8.20;5.57;;;19.00;99.90;;;;;;4974020;28;20469;-74
2023/06/30 07:10:50;;;;;;;8.90;5.60;;;19.00;99.90;;;;;;4974092;28;20442;-73
2023/06/30 07:13:19;;;;;;;8.80;5.93;;;19.00;99.90;;;;;;4975342;28;20462;-74
2023/06/30 07:15:48;;;;;;;10.90;5.30;;;19.00;99.90;;;;;;4975235;28;20438;-73
2023/06/30 07:18:18;;;;;;;8.00;4.63;;;19.10;99.90;;;;;;4974050;28;20497;-74
2023/06/30 07:20:48;;;;;;;6.23;4.00;;;19.20;99.90;;;;;;4973762;28;20442;-75
2023/06/30 07:23:18;;;;;;;6.53;3.90;;;19.10;99.90;;;;;;4975297;28;20448;-74
2023/06/30 07:25:47;;;;;;;7.80;4.10;;;19.20;99.90;;;;;;4973928;28;20446;-74
2023/06/30 07:28:15;;;;;;;8.50;5.13;;;19.20;99.90;;;;;;4975526;28;20462;-74
2023/06/30 07:30:44;;;;;;;8.00;5.10;;;19.30;99.90;;;;;;4973706;28;21022;-73
2023/06/30 07:33:12;;;;;;;8.20;4.67;;;19.40;99.90;;;;;;4975304;28;20958;-73
2023/06/30 07:35:40;;;;;;;11.50;5.43;;;19.40;99.90;;;;;;4974923;28;20441;-73
2023/06/30 07:38:09;;;;;;;9.23;4.80;;;19.40;99.90;;;;;;4975173;28;20481;-74
2023/06/30 07:40:38;;;;;;;6.27;4.70;;;19.40;99.90;;;;;;4975106;28;20849;-74
2023/06/30 07:43:09;;;;;;;9.77;4.67;;;19.40;99.90;;;;;;4975217;28;20855;-74
2023/06/30 07:45:38;;;;;;;10.47;5.00;;;19.40;99.90;;;;;;4973654;28;20819;-74
2023/06/30 07:48:06;;;;;;;6.30;3.10;;;19.60;99.90;;;;;;4973682;28;20561;-75
2023/06/30 07:50:35;;;;;;;7.20;3.30;;;19.70;99.90;;;;;;4973336;28;20473;-74
2023/06/30 07:53:08;;;;;;;7.73;4.23;;;19.80;99.90;;;;;;4975071;28;20445;-75
2023/06/30 07:55:37;;;;;;;5.43;3.27;;;19.90;99.90;;;;;;4973726;28;20444;-74
2023/06/30 07:58:05;;;;;;;6.30;3.10;;;20.00;99.90;;;;;;4974404;28;20517;-73
2023/06/30 08:00:33;;;;;;;6.10;3.13;;;20.00;99.90;;;;;;4974663;28;20537;-74
2023/06/30 08:03:01;;;;;;;7.00;3.70;;;20.10;99.90;;;;;;4973229;28;20545;-74
2023/06/30 08:05:30;;;;;;;5.77;3.80;;;20.10;99.90;;;;;;4973387;28;20854;-74
2023/06/30 08:07:58;;;;;;;5.27;3.03;;;20.10;99.90;;;;;;4973306;28;20607;-74
2023/06/30 08:10:26;;;;;;;7.00;3.23;;;20.10;99.90;;;;;;4973472;28;20453;-74
2023/06/30 08:12:56;;;;;;;8.63;3.53;;;20.10;99.90;;;;;;4974398;28;20548;-75
2023/06/30 08:15:24;;;;;;;6.20;3.20;;;20.10;99.90;;;;;;4973606;28;20788;-74
2023/06/30 08:17:52;;;;;;;6.00;2.97;;;20.20;99.90;;;;;;4974811;28;20477;-74
2023/06/30 08:20:25;;;;;;;5.70;3.43;;;20.30;99.90;;;;;;4974759;28;20790;-75
2023/06/30 08:22:54;;;;;;;8.80;3.30;;;20.40;99.90;;;;;;4977767;28;20477;-74
2023/06/30 08:25:23;;;;;;;6.20;2.63;;;20.40;99.90;;;;;;4978968;28;20951;-74
2023/06/30 08:27:52;;;;;;;8.90;2.90;;;20.50;99.90;;;;;;4976630;28;20827;-74
2023/06/30 08:30:22;;;;;;;6.87;2.80;;;20.40;99.90;;;;;;4977913;28;20433;-74
2023/06/30 08:32:54;;;;;;;6.20;2.80;;;20.30;99.90;;;;;;4978166;28;20899;-74
2023/06/30 08:35:24;;;;;;;7.67;2.67;;;20.30;99.90;;;;;;4977733;28;20426;-74
2023/06/30 08:37:52;;;;;;;6.70;2.73;;;20.30;99.90;;;;;;4977620;28;20476;-74
2023/06/30 08:40:26;;;;;;;6.37;3.13;;;20.50;99.90;;;;;;4978156;28;20437;-74
2023/06/30 08:42:56;;;;;;;5.00;2.70;;;20.50;99.90;;;;;;4977594;28;20505;-74
2023/06/30 08:45:26;;;;;;;6.53;2.60;;;20.50;99.90;;;;;;4977795;28;20453;-74
2023/06/30 08:47:56;;;;;;;5.70;3.00;;;20.50;99.90;;;;;;4978102;28;20430;-74
2023/06/30 08:50:25;;;;;;;5.10;3.40;;;20.40;99.90;;;;;;4977683;28;20798;-74
2023/06/30 08:52:55;;;;;;;9.03;2.80;;;20.40;99.90;;;;;;4977645;28;20434;-74
2023/06/30 08:55:24;;;;;;;7.03;2.80;;;20.30;99.90;;;;;;4979109;28;20810;-75
2023/06/30 08:57:55;;;;;;;5.47;2.67;;;20.30;99.90;;;;;;4978248;28;20995;-74
2023/06/30 09:00:27;;;;;;;6.13;2.60;;;20.40;99.90;;;;;;4979494;28;20460;-76
2023/06/30 09:02:59;;;;;;;6.87;2.17;;;20.50;99.90;;;;;;4978583;28;20566;-75
2023/06/30 09:05:28;;;;;;;7.20;2.10;;;20.60;99.90;;;;;;4976547;28;20529;-75
2023/06/30 09:07:57;;;;;;;49.40;24.17;;;20.70;99.90;;;;;;4977782;28;20446;-74
2023/06/30 09:10:28;;;;;;;4.60;2.30;;;20.80;99.90;;;;;;4977302;28;20524;-74
2023/06/30 09:12:58;;;;;;;6.37;2.57;;;20.90;99.90;;;;;;4977347;28;20875;-75
2023/06/30 09:15:27;;;;;;;5.80;2.40;;;21.00;99.90;;;;;;4977212;28;20592;-74
2023/06/30 09:17:56;;;;;;;5.33;2.20;;;21.10;99.90;;;;;;4977617;28;20573;-75
2023/06/30 09:20:24;;;;;;;6.00;2.63;;;21.00;99.90;;;;;;4976867;28;20449;-75
2023/06/30 09:22:53;;;;;;;7.43;3.03;;;21.00;99.90;;;;;;4978006;28;20440;-76
2023/06/30 09:25:42;;;;;;;6.37;2.50;;;20.90;99.90;;;;;;4978503;28;20422;-75
2023/06/30 09:28:14;;;;;;;6.67;2.57;;;20.90;99.90;;;;;;4978498;28;20496;-76
2023/06/30 09:30:51;;;;;;;4.73;2.30;;;21.00;99.90;;;;;;4976590;28;20437;-76
2023/06/30 09:33:20;;;;;;;4.80;2.20;;;21.10;99.90;;;;;;4979028;28;20426;-75
2023/06/30 09:35:50;;;;;;;6.23;2.20;;;21.10;99.90;;;;;;4978272;28;20852;-76
2023/06/30 09:38:19;;;;;;;5.40;1.90;;;21.10;99.90;;;;;;4978678;28;21045;-76
2023/06/30 09:40:51;;;;;;;5.60;2.10;;;21.10;99.90;;;;;;4978965;28;20461;-76
2023/06/30 09:43:21;;;;;;;5.13;2.00;;;21.10;99.90;;;;;;4978841;28;21005;-76
2023/06/30 09:45:56;;;;;;;4.93;2.00;;;21.20;99.90;;;;;;4978660;28;20438;-76
2023/06/30 09:48:30;;;;;;;4.80;1.80;;;21.20;99.90;;;;;;4976769;28;20480;-75
2023/06/30 09:50:58;;;;;;;4.90;1.87;;;21.30;99.90;;;;;;4978249;28;20418;-77
2023/06/30 09:53:28;;;;;;;6.50;1.80;;;21.40;99.90;;;;;;4978545;28;20444;-76
2023/06/30 09:55:57;;;;;;;4.60;1.63;;;21.50;99.90;;;;;;4978488;28;20421;-76
2023/06/30 09:58:25;;;;;;;5.50;2.37;;;21.50;99.90;;;;;;4976887;28;20485;-76
2023/06/30 10:00:54;;;;;;;4.17;2.00;;;21.60;99.90;;;;;;4978139;28;20441;-76
2023/06/30 10:03:23;;;;;;;5.50;2.57;;;21.70;99.90;;;;;;4977905;28;20442;-76
2023/06/30 10:05:54;;;;;;;5.97;2.20;;;21.70;99.90;;;;;;4977986;28;20496;-76
2023/06/30 10:08:23;;;;;;;4.90;2.00;;;21.60;99.90;;;;;;4976484;28;20511;-75
2023/06/30 10:10:54;;;;;;;5.83;2.07;;;21.70;99.90;;;;;;4978348;28;20774;-75
2023/06/30 10:13:23;;;;;;;5.90;2.30;;;21.80;99.90;;;;;;4976194;28;21022;-76
2023/06/30 10:15:52;;;;;;;4.70;2.10;;;21.90;99.90;;;;;;4975993;28;20477;-77
2023/06/30 10:18:23;;;;;;;5.03;2.00;;;21.90;99.90;;;;;;4976536;28;20902;-76
2023/06/30 10:20:51;;;;;;;5.57;2.27;;;22.00;99.90;;;;;;4977817;28;20457;-75
2023/06/30 10:23:20;;;;;;;7.30;2.07;;;22.10;99.90;;;;;;4978114;28;20812;-76
2023/06/30 10:25:50;;;;;;;6.10;2.10;;;22.20;99.90;;;;;;4976057;28;20446;-75
2023/06/30 10:28:19;;;;;;;8.63;2.57;;;22.20;99.90;;;;;;4977317;28;20449;-76
2023/06/30 10:30:51;;;;;;;5.60;2.10;;;22.20;99.90;;;;;;4977254;28;20536;-76
2023/06/30 10:33:23;;;;;;;7.13;2.00;;;22.10;99.90;;;;;;4976542;28;20453;-76
2023/06/30 10:35:51;;;;;;;4.93;2.33;;;22.00;99.90;;;;;;4976336;28;20975;-76
2023/06/30 10:38:19;;;;;;;8.43;2.50;;;21.90;99.90;;;;;;4977586;28;20465;-76
2023/06/30 10:40:48;;;;;;;5.07;2.10;;;22.00;99.90;;;;;;4977434;28;20438;-76
2023/06/30 10:43:18;;;;;;;5.13;2.10;;;22.00;99.90;;;;;;4977171;28;20450;-76
2023/06/30 10:46:04;;;;;;;5.70;2.03;;;22.10;99.90;;;;;;4976285;28;20488;-76
2023/06/30 10:48:36;;;;;;;4.63;1.87;;;22.20;99.90;;;;;;4976654;28;20457;-76
2023/06/30 10:51:05;;;;;;;5.80;2.20;;;22.20;99.90;;;;;;4976355;28;20437;-76
2023/06/30 10:53:36;;;;;;;5.27;2.10;;;22.30;99.90;;;;;;4975917;28;20446;-77
2023/06/30 10:56:05;;;;;;;3.97;1.77;;;22.20;99.90;;;;;;4976706;28;20441;-76
2023/06/30 10:58:41;;;;;;;4.73;1.90;;;22.30;99.90;;;;;;4975972;28;20479;-77
2023/06/30 11:01:09;;;;;;;5.67;2.03;;;22.30;99.90;;;;;;4975910;28;20421;-77
2023/06/30 11:04:22;;;;;;;5.30;1.90;;;22.40;99.90;;;;;;4975875;28;20481;-76
2023/06/30 11:07:03;;;;;;;4.40;1.80;;;22.40;99.90;;;;;;4935168;29;20450;-77
2023/06/30 11:09:56;;;;;;;5.30;2.20;;;22.40;99.90;;;;;;4966310;28;20846;-76
2023/06/30 11:12:25;;;;;;;6.00;1.70;;;22.30;99.90;;;;;;4974519;28;20508;-76
2023/06/30 11:14:55;;;;;;;4.53;1.70;;;22.30;99.90;;;;;;4975530;28;20446;-76
2023/06/30 11:17:24;;;;;;;4.67;1.77;;;22.20;99.90;;;;;;4975396;28;20492;-76
2023/06/30 11:20:11;;;;;;;5.40;2.20;;;22.20;99.90;;;;;;4975846;28;20469;-76
2023/06/30 11:22:42;;;;;;;5.20;1.90;;;22.20;99.90;;;;;;4976075;28;20422;-76
2023/06/30 11:25:11;;;;;;;5.60;1.87;;;22.20;99.90;;;;;;4975914;28;20449;-77
2023/06/30 11:27:40;;;;;;;5.80;2.27;;;22.20;99.90;;;;;;4975395;28;21034;-76
2023/06/30 11:30:09;;;;;;;5.10;2.07;;;22.10;99.90;;;;;;4975981;28;20484;-76
2023/06/30 11:32:37;;;;;;;4.67;1.93;;;22.10;99.90;;;;;;4975363;28;20433;-76
2023/06/30 11:35:09;;;;;;;5.87;2.23;;;22.10;99.90;;;;;;4975252;28;20446;-77
2023/06/30 11:37:37;;;;;;;4.73;2.20;;;22.10;99.90;;;;;;4975084;28;20481;-76
2023/06/30 11:40:08;;;;;;;5.03;1.90;;;22.20;99.90;;;;;;4975573;28;20500;-76
2023/06/30 11:42:39;;;;;;;4.63;1.80;;;22.20;99.90;;;;;;4975690;28;20753;-76
2023/06/30 11:45:09;;;;;;;4.07;1.57;;;22.30;99.90;;;;;;4975708;28;20892;-77
2023/06/30 11:47:41;;;;;;;4.50;1.80;;;22.50;99.90;;;;;;4975794;28;20449;-76
2023/06/30 11:50:10;;;;;;;7.93;1.80;;;22.60;99.90;;;;;;4975900;28;20453;-77
2023/06/30 11:52:40;;;;;;;4.47;2.17;;;22.60;99.90;;;;;;4976246;28;20500;-76
2023/06/30 11:55:11;;;;;;;4.60;1.80;;;22.70;99.90;;;;;;4976148;28;20962;-76
2023/06/30 11:57:41;;;;;;;7.43;2.80;;;22.80;99.90;;;;;;4977112;28;20440;-76
2023/06/30 12:00:13;;;;;;;5.30;1.90;;;22.90;99.90;;;;;;4980115;28;20457;-76
2023/06/30 12:02:58;;;;;;;5.27;1.93;;;23.00;99.90;;;;;;4981442;28;20437;-76
2023/06/30 12:05:28;;;;;;;7.53;2.63;;;23.00;99.90;;;;;;4981217;28;20779;-76
2023/06/30 12:07:57;;;;;;;5.13;2.00;;;23.00;99.90;;;;;;4979134;28;20549;-76
2023/06/30 12:10:37;;;;;;;4.60;1.73;;;23.00;99.90;;;;;;4978527;28;20445;-76
2023/06/30 12:13:07;;;;;;;5.97;2.50;;;23.10;99.90;;;;;;4979484;28;20453;-76
2023/06/30 12:15:36;;;;;;;5.53;2.20;;;23.10;99.90;;;;;;4979763;28;20524;-77
2023/06/30 12:18:05;;;;;;;4.40;1.80;;;23.10;99.90;;;;;;4979347;28;20469;-77
2023/06/30 12:20:35;;;;;;;6.43;1.67;;;23.10;99.90;;;;;;4977370;28;20480;-77
2023/06/30 12:23:04;;;;;;;4.03;1.63;;;23.00;99.60;;;;;;4978828;28;20429;-76
2023/06/30 12:25:35;;;;;;;4.40;2.03;;;23.00;99.70;;;;;;4977891;28;20795;-76
2023/06/30 12:28:05;;;;;;;5.60;2.13;;;22.90;99.80;;;;;;4978635;28;20541;-76
2023/06/30 12:30:33;;;;;;;4.97;2.10;;;22.90;99.80;;;;;;4978730;28;20455;-76
2023/06/30 12:33:03;;;;;;;5.10;1.87;;;22.90;99.60;;;;;;4978843;28;20445;-76
2023/06/30 12:35:33;;;;;;;6.40;2.17;;;22.90;99.80;;;;;;4978978;28;20528;-75
2023/06/30 12:38:03;;;;;;;6.50;2.03;;;22.90;99.50;;;;;;4978823;28;20453;-76
2023/06/30 12:40:31;;;;;;;5.30;1.63;;;22.80;99.30;;;;;;4977755;28;20458;-76
2023/06/30 12:43:00;;;;;;;4.93;1.77;;;22.80;99.30;;;;;;4978954;28;20442;-76
2023/06/30 12:45:29;;;;;;;5.07;2.20;;;22.80;99.30;;;;;;4977512;28;20560;-77
2023/06/30 12:47:58;;;;;;;4.20;1.80;;;22.70;99.20;;;;;;4976746;28;20444;-76
2023/06/30 12:50:26;;;;;;;3.83;1.63;;;22.70;99.20;;;;;;4976940;28;20844;-76
2023/06/30 12:52:57;;;;;;;5.40;1.80;;;22.80;99.30;;;;;;4976882;28;20540;-76